createdAt,value
2018-06-27T00:00:43.782Z,101954.75
2018-06-27T00:03:11.320Z,101952.93
2018-06-27T00:05:38.421Z,101951.19
2018-06-27T00:08:05.469Z,101957.48
2018-06-27T00:10:32.555Z,101962.86
2018-06-27T00:12:59.725Z,101969.95
2018-06-27T00:15:26.770Z,101968.03
2018-06-27T00:17:53.969Z,101958.53
2018-06-27T00:20:21.041Z,101960.96
2018-06-27T00:22:48.148Z,101964.73
2018-06-27T00:25:16.301Z,101967.30
2018-06-27T00:27:50.042Z,101959.86
2018-06-27T00:30:17.294Z,101961.31
2018-06-27T00:32:44.377Z,101966.36
2018-06-27T00:35:11.541Z,101968.48
2018-06-27T00:37:38.622Z,101961.09
2018-06-27T00:40:05.785Z,101962.13
2018-06-27T00:42:32.864Z,101960.61
2018-06-27T00:44:59.941Z,101954.85
2018-06-27T00:47:27.007Z,101953.82
2018-06-27T00:49:54.053Z,101952.81
2018-06-27T00:52:21.161Z,101960.92
2018-06-27T00:54:48.224Z,101960.92
2018-06-27T00:57:15.259Z,101959.50
2018-06-27T00:59:42.342Z,101955.91
2018-06-27T01:02:09.369Z,101955.49
2018-06-27T01:04:36.493Z,101956.37
2018-06-27T01:07:03.641Z,101956.04
2018-06-27T01:09:30.729Z,101960.75
2018-06-27T01:11:57.791Z,101960.46
2018-06-27T01:14:24.940Z,101960.91
2018-06-27T01:16:52.081Z,101958.80
2018-06-27T01:19:19.183Z,101961.73
2018-06-27T01:21:46.429Z,101960.38
2018-06-27T01:24:13.492Z,101955.02
2018-06-27T01:26:40.545Z,101959.58
2018-06-27T01:31:57.985Z,101957.37
2018-06-27T01:34:25.106Z,101957.52
2018-06-27T04:06:09.099Z,101993.28
2018-06-27T04:08:36.126Z,101993.64
2018-06-27T04:11:03.154Z,101994.09
2018-06-27T04:13:30.326Z,101993.05
2018-06-27T04:15:57.445Z,101991.27
2018-06-27T04:18:24.468Z,101998.28
2018-06-27T04:20:51.509Z,101992.78
2018-06-27T04:23:18.608Z,101990.84
2018-06-27T04:25:45.698Z,102002.11
2018-06-27T04:28:12.737Z,102003.30
2018-06-27T04:30:39.779Z,102003.00
2018-06-27T04:33:06.851Z,102002.05
2018-06-27T04:35:33.925Z,102010.23
2018-06-27T04:38:01.042Z,102012.20
2018-06-27T04:40:28.101Z,102008.94
2018-06-27T04:42:55.159Z,102015.03
2018-06-27T04:45:22.205Z,102016.44
2018-06-27T04:47:49.276Z,102017.78
2018-06-27T04:50:16.363Z,102017.16
2018-06-27T04:52:43.446Z,102023.52
2018-06-27T04:55:10.655Z,102025.47
2018-06-27T04:57:37.854Z,102026.41
2018-06-27T05:00:05.010Z,102020.30
2018-06-27T05:02:32.126Z,102015.31
2018-06-27T05:04:59.264Z,102017.59
2018-06-27T05:07:26.331Z,102019.64
2018-06-27T05:09:53.401Z,102023.58
2018-06-27T05:12:21.021Z,102015.65
2018-06-27T05:14:48.081Z,102014.09
2018-06-27T05:17:15.117Z,102016.98
2018-06-27T05:19:43.473Z,102023.42
2018-06-27T05:22:10.906Z,102031.52
2018-06-27T05:24:37.973Z,102028.83
2018-06-27T05:27:05.277Z,102019.91
2018-06-27T05:29:32.354Z,102024.11
2018-06-27T05:31:59.422Z,102027.44
2018-06-27T05:34:26.474Z,102023.92
2018-06-27T05:36:53.552Z,102018.46
2018-06-27T05:39:20.615Z,102022.09
2018-06-27T05:41:47.661Z,102030.67
2018-06-27T05:44:14.803Z,102029.80
2018-06-27T05:46:41.816Z,102025.13
2018-06-27T05:49:08.868Z,102028.67
2018-06-27T05:51:36.041Z,102031.88
2018-06-27T05:54:03.136Z,102035.00
2018-06-27T05:56:30.211Z,102038.39
2018-06-27T05:58:57.375Z,102040.23
2018-06-27T06:01:24.514Z,102043.71
2018-06-27T06:03:51.613Z,102037.96
2018-06-27T06:06:18.766Z,102038.42
2018-06-27T06:08:45.946Z,102043.07
2018-06-27T06:11:13.075Z,102038.28
2018-06-27T06:13:40.145Z,102045.67
2018-06-27T06:16:07.193Z,102049.55
2018-06-27T06:18:34.235Z,102055.97
2018-06-27T06:21:01.380Z,102053.52
2018-06-27T06:23:28.466Z,102057.69
2018-06-27T06:25:55.530Z,102056.92
2018-06-27T06:28:22.617Z,102051.17
2018-06-27T06:30:49.682Z,102050.13
2018-06-27T06:33:16.813Z,102057.02
2018-06-27T06:35:43.865Z,102057.20
2018-06-27T06:38:10.932Z,102056.00
2018-06-27T06:40:38.033Z,102056.66
2018-06-27T06:43:05.114Z,102055.09
2018-06-27T06:45:32.202Z,102050.10
2018-06-27T06:47:59.499Z,102050.30
2018-06-27T06:50:26.562Z,102049.39
2018-06-27T06:52:53.655Z,102053.92
2018-06-27T06:55:21.185Z,102060.45
2018-06-27T06:57:48.278Z,102063.53
2018-06-27T07:00:15.352Z,102060.70
2018-06-27T07:02:42.834Z,102060.29
2018-06-27T07:05:09.884Z,102066.41
2018-06-27T07:07:36.906Z,102077.09
2018-06-27T07:10:10.738Z,102074.44
2018-06-27T07:12:37.857Z,102081.47
2018-06-27T07:15:04.986Z,102080.37
2018-06-27T07:17:32.057Z,102089.94
2018-06-27T07:19:59.107Z,102090.56
2018-06-27T07:22:26.557Z,102091.05
2018-06-27T07:24:53.727Z,102087.80
2018-06-27T07:27:20.932Z,102083.52
2018-06-27T07:29:48.020Z,102086.59
2018-06-27T07:32:15.175Z,102084.75
2018-06-27T07:34:42.225Z,102085.65
2018-06-27T07:37:09.330Z,102090.15
2018-06-27T07:39:36.403Z,102089.91
2018-06-27T07:42:03.572Z,102094.44
2018-06-27T07:44:30.626Z,102091.80
2018-06-27T07:46:57.799Z,102089.06
2018-06-27T07:49:24.918Z,102090.02
2018-06-27T07:51:52.033Z,102092.03
2018-06-27T07:54:19.338Z,102092.88
2018-06-27T07:56:46.378Z,102085.59
2018-06-27T07:59:13.423Z,102090.16
2018-06-27T08:01:40.425Z,102086.02
2018-06-27T08:04:07.485Z,102082.78
2018-06-27T08:06:46.281Z,102088.41
2018-06-27T08:09:13.354Z,102086.70
2018-06-27T08:11:41.312Z,102091.84
2018-06-27T08:14:08.529Z,102085.56
2018-06-27T08:16:35.703Z,102083.41
2018-06-27T08:19:02.746Z,102085.45
2018-06-27T08:21:29.876Z,102080.55
2018-06-27T08:23:56.897Z,102082.70
2018-06-27T08:26:24.168Z,102089.82
2018-06-27T08:28:51.161Z,102091.02
2018-06-27T08:31:18.493Z,102096.84
2018-06-27T08:33:45.646Z,102101.41
2018-06-27T08:36:12.661Z,102099.54
2018-06-27T08:38:39.678Z,102099.99
2018-06-27T08:41:06.725Z,102095.44
2018-06-27T08:43:33.737Z,102091.25
2018-06-27T08:46:01.020Z,102093.56
2018-06-27T08:48:28.083Z,102094.20
2018-06-27T08:50:55.089Z,102096.25
2018-06-27T08:53:22.271Z,102088.43
2018-06-27T08:55:49.837Z,102076.34
2018-06-27T08:58:16.853Z,102080.24
2018-06-27T09:00:44.033Z,102086.50
2018-06-27T09:03:11.026Z,102083.95
2018-06-27T09:05:38.231Z,102084.49
2018-06-27T09:08:05.251Z,102074.91
2018-06-27T09:10:32.349Z,102072.44
2018-06-27T09:12:59.369Z,102075.48
2018-06-27T09:15:26.761Z,102080.89
2018-06-27T09:17:53.801Z,102076.31
2018-06-27T09:20:20.850Z,102070.66
2018-06-27T09:22:48.273Z,102076.81
2018-06-27T09:25:15.702Z,102082.74
2018-06-27T09:27:42.702Z,102079.61
2018-06-27T09:30:09.839Z,102080.31
2018-06-27T09:32:36.926Z,102078.78
2018-06-27T09:35:04.167Z,102079.57
2018-06-27T09:37:31.561Z,102071.54
2018-06-27T09:39:58.721Z,102078.80
2018-06-27T09:42:25.743Z,102083.73
2018-06-27T09:44:52.838Z,102080.05
2018-06-27T09:47:19.975Z,102075.28
2018-06-27T09:49:46.994Z,102076.78
2018-06-27T09:52:14.166Z,102079.91
2018-06-27T09:54:41.487Z,102079.75
2018-06-27T09:57:10.333Z,102077.37
2018-06-27T09:59:37.347Z,102071.99
2018-06-27T10:02:04.402Z,102071.42
2018-06-27T10:04:31.728Z,102068.00
2018-06-27T10:06:58.981Z,102074.76
2018-06-27T10:09:26.594Z,102071.30
2018-06-27T10:11:53.700Z,102070.19
2018-06-27T10:14:21.184Z,102073.20
2018-06-27T10:16:48.351Z,102064.86
2018-06-27T10:19:15.341Z,102057.86
2018-06-27T10:21:42.446Z,102054.34
2018-06-27T10:24:09.822Z,102060.77
2018-06-27T10:26:36.989Z,102059.25
2018-06-27T10:29:04.411Z,102060.09
2018-06-27T10:31:31.598Z,102062.11
2018-06-27T10:33:58.786Z,102054.77
2018-06-27T10:36:26.267Z,102059.16
2018-06-27T10:38:53.880Z,102054.53
2018-06-27T10:41:21.199Z,102055.52
2018-06-27T10:43:48.299Z,102059.06
2018-06-27T10:46:16.370Z,102063.84
2018-06-27T10:48:43.407Z,102061.16
2018-06-27T10:51:10.603Z,102058.23
2018-06-27T10:53:37.614Z,102055.52
2018-06-27T10:56:04.673Z,102054.58
2018-06-27T10:58:31.788Z,102054.00
2018-06-27T11:00:58.862Z,102046.16
2018-06-27T11:03:25.905Z,102049.02
2018-06-27T11:05:52.957Z,102044.64
2018-06-27T11:08:19.970Z,102042.61
2018-06-27T11:10:47.031Z,102041.66
2018-06-27T11:13:14.067Z,102038.75
2018-06-27T11:15:41.107Z,102036.25
2018-06-27T11:18:08.122Z,102028.53
2018-06-27T11:20:35.137Z,102035.48
2018-06-27T11:23:02.284Z,102033.57
2018-06-27T11:25:29.387Z,102034.97
2018-06-27T11:27:56.478Z,102034.05
2018-06-27T11:30:23.478Z,102023.27
2018-06-27T11:32:50.952Z,102026.67
2018-06-27T11:35:17.977Z,102027.69
2018-06-27T11:37:45.016Z,102023.75
2018-06-27T11:40:12.136Z,102025.17
2018-06-27T11:42:39.153Z,102022.75
2018-06-27T11:45:06.458Z,102018.00
2018-06-27T11:47:33.574Z,102019.07
2018-06-27T11:50:00.603Z,102018.69
2018-06-27T11:52:27.669Z,102018.01
2018-06-27T11:55:00.499Z,102018.20
2018-06-27T11:57:27.597Z,102018.66
2018-06-27T11:59:54.842Z,102014.59
2018-06-27T12:02:21.931Z,102013.24
2018-06-27T12:04:49.101Z,102017.56
2018-06-27T12:07:16.622Z,102018.35
2018-06-27T12:09:43.970Z,102015.08
2018-06-27T12:12:11.097Z,102019.85
2018-06-27T12:14:38.333Z,102012.14
2018-06-27T12:17:05.349Z,102015.99
2018-06-27T12:19:32.374Z,102014.00
2018-06-27T12:21:59.382Z,102012.02
2018-06-27T12:24:26.420Z,102008.05
2018-06-27T12:26:53.518Z,102008.98
2018-06-27T12:29:20.533Z,102010.45
2018-06-27T12:31:47.834Z,102006.98
2018-06-27T12:34:14.854Z,102003.09
2018-06-27T12:36:41.851Z,101999.24
2018-06-27T12:39:09.195Z,102007.41
2018-06-27T12:41:36.750Z,102001.73
2018-06-27T12:44:03.770Z,102006.87
2018-06-27T12:46:30.880Z,102000.23
2018-06-27T12:48:57.914Z,101996.58
2018-06-27T12:51:25.017Z,102003.16
2018-06-27T12:53:52.058Z,101992.80
2018-06-27T12:56:19.227Z,101998.58
2018-06-27T12:58:46.360Z,101986.78
2018-06-27T13:01:13.386Z,101983.89
2018-06-27T13:03:40.414Z,101984.47
2018-06-27T13:06:07.453Z,101989.70
2018-06-27T13:08:34.461Z,101988.03
2018-06-27T13:11:01.691Z,101993.20
2018-06-27T13:13:28.793Z,101985.99
2018-06-27T13:15:55.833Z,101989.42
2018-06-27T13:18:22.932Z,101986.17
2018-06-27T13:20:50.093Z,101983.27
2018-06-27T13:23:17.242Z,101991.61
2018-06-27T13:25:44.269Z,101983.04
2018-06-27T13:28:11.369Z,101985.08
2018-06-27T13:30:38.408Z,101982.47
2018-06-27T13:33:05.703Z,101976.48
2018-06-27T13:35:32.748Z,101975.66
2018-06-27T13:38:00.076Z,101970.27
2018-06-27T13:40:27.133Z,101972.91
2018-06-27T13:42:54.204Z,101976.00
2018-06-27T13:45:21.221Z,101975.23
2018-06-27T13:47:48.252Z,101976.61
2018-06-27T13:50:15.318Z,101967.06
2018-06-27T13:52:42.350Z,101973.66
2018-06-27T13:55:09.489Z,101961.98
2018-06-27T13:57:36.521Z,101966.97
2018-06-27T14:00:03.989Z,101966.59
2018-06-27T14:02:30.997Z,101966.02
2018-06-27T14:04:58.090Z,101968.14
2018-06-27T14:07:25.296Z,101965.03
2018-06-27T14:09:52.510Z,101966.06
2018-06-27T14:12:19.600Z,101961.75
2018-06-27T14:14:46.638Z,101957.94
2018-06-27T14:17:13.766Z,101958.41
2018-06-27T14:19:40.859Z,101957.36
2018-06-27T14:22:09.310Z,101949.27
2018-06-27T14:24:37.116Z,101946.50
2018-06-27T14:27:04.255Z,101951.84
2018-06-27T14:29:41.849Z,101954.80
2018-06-27T14:32:12.797Z,101959.52
2018-06-27T14:34:43.724Z,101964.66
2018-06-27T14:37:15.061Z,101951.52
2018-06-27T14:40:01.106Z,101948.74
2018-06-27T14:42:35.239Z,101951.36
2018-06-27T14:45:23.813Z,101945.73
2018-06-27T14:48:05.798Z,101946.30
2018-06-27T14:51:27.738Z,101949.91
2018-06-27T14:54:00.995Z,101945.39
2018-06-27T14:56:31.813Z,101946.25
2018-06-27T14:59:07.315Z,101939.61
2018-06-27T15:01:38.597Z,101942.14
2018-06-27T15:04:14.759Z,101939.81
2018-06-27T15:06:49.268Z,101938.11
2018-06-27T15:09:21.722Z,101933.48
2018-06-27T15:11:50.910Z,101934.19
2018-06-27T15:14:24.531Z,101928.77
2018-06-27T15:16:54.994Z,101925.01
2018-06-27T15:19:28.316Z,101927.84
2018-06-27T15:22:07.373Z,101922.05
2018-06-27T15:24:46.788Z,101919.42
2018-06-27T15:27:17.766Z,101919.05
2018-06-27T15:29:51.066Z,101918.19
2018-06-27T15:32:29.649Z,101920.94
2018-06-27T15:37:37.561Z,101917.81
2018-06-27T15:40:12.266Z,101912.47
2018-06-27T15:42:46.859Z,101916.82
2018-06-27T15:45:27.452Z,101913.52
2018-06-27T15:47:59.267Z,101912.41
2018-06-27T15:50:34.709Z,101916.00
2018-06-27T15:53:05.393Z,101908.91
2018-06-27T15:55:37.149Z,101907.13
2018-06-27T15:58:12.526Z,101900.61
2018-06-27T16:03:22.637Z,101896.28
2018-06-27T16:05:53.062Z,101902.56
2018-06-27T16:08:22.628Z,101907.05
2018-06-27T16:10:55.727Z,101900.55
2018-06-27T16:13:28.295Z,101906.15
2018-06-27T16:16:02.839Z,101902.78
2018-06-27T16:18:39.201Z,101897.41
2018-06-27T16:21:10.259Z,101899.78
2018-06-27T16:23:43.794Z,101899.77
2018-06-27T16:26:13.033Z,101902.09
2018-06-27T16:28:47.222Z,101895.06
2018-06-27T16:31:23.585Z,101894.08
2018-06-27T16:33:56.826Z,101898.28
2018-06-27T16:36:35.946Z,101893.34
2018-06-27T16:41:48.818Z,101896.08
2018-06-27T16:44:22.248Z,101899.25
2018-06-27T16:46:52.893Z,101891.72
2018-06-27T16:49:24.248Z,101893.14
2018-06-27T16:51:54.290Z,101899.17
2018-06-27T16:54:25.476Z,101902.89
2018-06-27T16:56:56.299Z,101899.16
2018-06-27T16:59:30.091Z,101906.89
2018-06-27T17:01:59.861Z,101905.45
2018-06-27T17:04:31.532Z,101906.23
2018-06-27T17:07:07.752Z,101914.24
2018-06-27T17:09:34.827Z,101913.92
2018-06-27T17:12:01.970Z,101914.41
2018-06-27T17:14:29.105Z,101913.20
2018-06-27T17:16:56.122Z,101914.04
2018-06-27T17:19:23.270Z,101907.09
2018-06-27T17:21:50.412Z,101912.14
2018-06-27T17:24:24.381Z,101913.42
2018-06-27T17:26:51.761Z,101913.17
2018-06-27T17:29:18.846Z,101913.72
2018-06-27T17:31:45.979Z,101918.91
2018-06-27T17:34:12.996Z,101921.33
2018-06-27T17:36:40.066Z,101919.53
2018-06-27T17:39:08.312Z,101924.44
2018-06-27T17:41:35.493Z,101924.61
2018-06-27T17:44:03.197Z,101920.46
2018-06-27T17:46:30.202Z,101926.47
2018-06-27T17:49:27.531Z,101922.20
2018-06-27T17:51:54.561Z,101920.88
2018-06-27T17:54:21.645Z,101918.97
2018-06-27T17:56:48.761Z,101920.82
2018-06-27T17:59:15.961Z,101919.54
2018-06-27T18:01:43.079Z,101918.91
2018-06-27T18:04:10.155Z,101921.20
2018-06-27T18:06:37.504Z,101916.58
2018-06-27T18:09:07.088Z,101922.55
2018-06-27T18:11:34.102Z,101918.00
2018-06-27T18:14:01.162Z,101924.45
2018-06-27T18:16:28.219Z,101921.25
2018-06-27T18:18:55.242Z,101926.84
2018-06-27T18:21:22.281Z,101930.04
2018-06-27T18:23:49.357Z,101926.72
2018-06-27T18:26:16.426Z,101929.98
2018-06-27T18:28:43.522Z,101932.53
2018-06-27T18:31:10.541Z,101928.95
2018-06-27T18:33:37.633Z,101927.55
2018-06-27T18:36:04.706Z,101931.72
2018-06-27T18:38:31.737Z,101932.66
2018-06-27T18:40:58.801Z,101927.61
2018-06-27T18:43:25.786Z,101928.48
2018-06-27T18:45:52.829Z,101935.85
2018-06-27T18:48:19.890Z,101933.87
2018-06-27T18:50:47.322Z,101932.47
2018-06-27T18:53:15.293Z,101915.28
2018-06-27T18:55:42.432Z,101942.20
2018-06-27T18:58:09.549Z,101934.47
2018-06-27T19:00:36.829Z,101935.34
2018-06-27T19:03:04.005Z,101938.97
2018-06-27T19:05:31.082Z,101935.06
2018-06-27T19:07:58.174Z,101942.80
2018-06-27T19:10:25.250Z,101747.88
2018-06-27T19:12:52.871Z,101940.62
2018-06-27T19:15:20.275Z,101944.78
2018-06-27T19:17:47.427Z,101946.38
2018-06-27T19:20:14.918Z,101944.34
2018-06-27T19:22:41.941Z,101946.27
2018-06-27T19:25:08.992Z,101945.45
2018-06-27T19:27:36.573Z,101957.61
2018-06-27T19:30:04.248Z,101955.38
2018-06-27T19:32:31.511Z,101954.20
2018-06-27T19:34:58.607Z,101954.73
2018-06-27T19:37:25.610Z,101957.69
2018-06-27T19:39:52.677Z,101958.56
2018-06-27T19:42:19.965Z,101947.89
2018-06-27T19:44:47.077Z,101965.32
2018-06-27T19:47:14.246Z,101961.63
2018-06-27T19:49:41.656Z,101963.04
2018-06-27T19:52:08.986Z,101967.21
2018-06-27T19:54:36.430Z,101968.20
2018-06-27T19:57:03.457Z,101961.75
2018-06-27T19:59:30.454Z,101962.77
2018-06-27T20:01:57.473Z,101957.27
2018-06-27T20:04:24.639Z,101966.83
2018-06-27T20:06:51.864Z,101965.86
2018-06-27T20:09:18.844Z,101970.90
2018-06-27T20:11:45.922Z,101967.34
2018-06-27T20:14:13.521Z,101968.27
2018-06-27T20:16:40.505Z,101972.86
2018-06-27T20:19:07.806Z,101967.31
2018-06-27T20:21:34.881Z,101969.55
2018-06-27T20:24:01.910Z,101963.29
2018-06-27T20:26:31.186Z,101965.58
2018-06-27T20:28:58.857Z,101971.12
2018-06-27T20:31:25.962Z,101969.80
2018-06-27T20:33:52.972Z,101975.91
2018-06-27T20:36:20.653Z,101971.27
2018-06-27T20:38:47.671Z,101969.93
2018-06-27T20:41:15.111Z,101976.75
2018-06-27T20:43:42.154Z,101975.67
2018-06-27T20:46:09.278Z,101975.50
2018-06-27T20:48:36.266Z,101974.70
2018-06-27T20:51:03.343Z,101976.70
2018-06-27T20:53:30.371Z,101976.32
2018-06-27T20:55:57.564Z,101973.84
2018-06-27T20:58:24.600Z,101978.00
2018-06-27T21:00:52.354Z,101972.89
2018-06-27T21:03:19.646Z,101969.08
2018-06-27T21:05:46.750Z,101974.59
2018-06-27T21:08:13.799Z,101966.23
2018-06-27T21:10:40.871Z,101976.00
2018-06-27T21:13:07.982Z,101976.95
2018-06-27T21:15:35.065Z,101976.31
2018-06-27T21:18:02.093Z,101977.82
2018-06-27T21:20:29.118Z,101979.02
2018-06-27T21:22:56.258Z,101980.94
2018-06-27T21:25:23.301Z,101983.20
2018-06-27T21:27:50.446Z,101981.20
2018-06-27T21:30:17.483Z,101987.38
2018-06-27T21:32:44.576Z,101988.15
2018-06-27T21:35:11.613Z,101986.37
2018-06-27T21:37:38.633Z,101992.09
2018-06-27T21:40:05.730Z,101994.95
2018-06-27T21:42:32.897Z,102003.03
2018-06-27T21:45:00.021Z,102002.06
2018-06-27T21:47:27.077Z,102002.98
2018-06-27T21:49:54.287Z,101999.17
2018-06-27T21:52:21.311Z,101998.30
2018-06-27T21:54:48.391Z,101998.94
2018-06-27T21:57:15.600Z,102005.50
2018-06-27T21:59:42.712Z,101998.52
2018-06-27T22:02:09.823Z,102000.08
2018-06-27T22:04:36.888Z,102005.78
2018-06-27T22:07:04.006Z,102009.23
2018-06-27T22:09:31.190Z,102002.44
2018-06-27T22:11:58.327Z,102003.36
2018-06-27T22:14:25.370Z,102004.27
2018-06-27T22:16:52.546Z,102003.80
2018-06-27T22:19:19.625Z,102003.66
2018-06-27T22:21:46.773Z,102006.56
2018-06-27T22:24:13.739Z,102011.97
2018-06-27T22:26:40.838Z,102012.19
2018-06-27T22:29:07.974Z,102010.05
2018-06-27T22:31:34.999Z,102011.03
2018-06-27T22:34:02.466Z,102013.23
2018-06-27T22:36:29.478Z,102010.85
2018-06-27T22:38:56.481Z,102019.26
2018-06-27T22:41:23.854Z,102021.83
2018-06-27T22:43:50.871Z,102022.05
2018-06-27T22:46:17.896Z,102020.78
2018-06-27T22:48:45.404Z,102028.31
2018-06-27T22:51:12.589Z,102025.27
2018-06-27T22:53:39.609Z,102024.03
2018-06-27T22:56:06.722Z,102029.91
2018-06-27T22:58:33.818Z,102034.39
2018-06-27T23:01:00.937Z,102034.02
2018-06-27T23:03:27.970Z,102030.44
2018-06-27T23:05:55.105Z,102029.45
2018-06-27T23:08:22.122Z,102039.13
2018-06-27T23:10:49.226Z,102038.25
2018-06-27T23:13:16.253Z,102031.22
2018-06-27T23:15:43.362Z,102038.09
2018-06-27T23:18:10.533Z,102037.91
2018-06-27T23:20:37.997Z,102034.29
2018-06-27T23:23:05.129Z,102033.68
2018-06-27T23:25:32.225Z,102033.76
2018-06-27T23:27:59.317Z,102035.74
2018-06-27T23:30:26.369Z,102029.83
2018-06-27T23:32:53.388Z,102032.94
2018-06-27T23:35:20.424Z,102038.61
2018-06-27T23:37:47.536Z,102033.37
2018-06-27T23:40:14.636Z,102026.70
2018-06-27T23:42:41.695Z,102027.38
2018-06-27T23:45:08.729Z,102018.84
2018-06-27T23:47:35.751Z,102023.98
2018-06-27T23:50:03.182Z,102024.47
2018-06-27T23:52:30.249Z,102021.47
2018-06-27T23:54:57.295Z,102019.63
2018-06-27T23:57:24.337Z,102022.73
2018-06-27T23:59:51.459Z,102021.75
